sensor_id;sensor_type;location;lat;lon;timestamp;P1;P2;P0
72918;PMS7003;68407;55.694;26.994;2023-04-03T00:01:35;0.2;0.1;0.1
72918;PMS7003;68407;55.694;26.994;2023-04-03T00:06:13;0.5;0.2;0.1
72918;PMS7003;68407;55.694;26.994;2023-04-03T00:11:45;1.3;0.2;0.2
72918;PMS7003;68407;55.694;26.994;2023-04-03T00:16:04;0.8;0.1;0.1
72918;PMS7003;68407;55.694;26.994;2023-04-03T00:21:03;0.7;0.2;0.2
72918;PMS7003;68407;55.694;26.994;2023-04-03T00:26:11;0.2;0.1;0
72918;PMS7003;68407;55.694;26.994;2023-04-03T00:31:14;0.3;0.3;0.2
72918;PMS7003;68407;55.694;26.994;2023-04-03T00:36:43;0.6;0.1;0.1
72918;PMS7003;68407;55.694;26.994;2023-04-03T00:41:27;0.8;0.3;0.2
72918;PMS7003;68407;55.694;26.994;2023-04-03T00:46:13;0.4;0.3;0.1
72918;PMS7003;68407;55.694;26.994;2023-04-03T00:51:37;0.3;0.1;0
72918;PMS7003;68407;55.694;26.994;2023-04-03T00:56:10;0.6;0.3;0.1
72918;PMS7003;68407;55.694;26.994;2023-04-03T01:01:43;0.7;0.2;0.1
72918;PMS7003;68407;55.694;26.994;2023-04-03T01:06:28;0.4;0.2;0.1
72918;PMS7003;68407;55.694;26.994;2023-04-03T01:11:03;0.6;0.1;0.1
72918;PMS7003;68407;55.694;26.994;2023-04-03T01:16:35;0.1;0.1;0
72918;PMS7003;68407;55.694;26.994;2023-04-03T01:21:50;0.2;0.1;0
72918;PMS7003;68407;55.694;26.994;2023-04-03T01:26:43;0.2;0;0
72918;PMS7003;68407;55.694;26.994;2023-04-03T01:31:31;0.2;0;0
72918;PMS7003;68407;55.694;26.994;2023-04-03T01:36:04;0.2;0.1;0
72918;PMS7003;68407;55.694;26.994;2023-04-03T01:41:29;0.4;0;0
72918;PMS7003;68407;55.694;26.994;2023-04-03T01:46:19;0.1;0.1;0
72918;PMS7003;68407;55.694;26.994;2023-04-03T01:51:43;0.4;0;0
72918;PMS7003;68407;55.694;26.994;2023-04-03T01:56:27;0.6;0.1;0.1
72918;PMS7003;68407;55.694;26.994;2023-04-03T02:01:19;0.4;0;0
72918;PMS7003;68407;55.694;26.994;2023-04-03T02:06:35;0.6;0;0
72918;PMS7003;68407;55.694;26.994;2023-04-03T02:11:03;0.5;0;0
72918;PMS7003;68407;55.694;26.994;2023-04-03T02:16:45;0.5;0;0
72918;PMS7003;68407;55.694;26.994;2023-04-03T02:21:27;0.4;0.1;0
72918;PMS7003;68407;55.694;26.994;2023-04-03T02:26:05;0.5;0.1;0
72918;PMS7003;68407;55.694;26.994;2023-04-03T02:31:04;0.1;0;0
72918;PMS7003;68407;55.694;26.994;2023-04-03T02:36:04;0;0;0
72918;PMS7003;68407;55.694;26.994;2023-04-03T02:41:45;0.4;0;0
72918;PMS7003;68407;55.694;26.994;2023-04-03T02:46:29;0.2;0;0
72918;PMS7003;68407;55.694;26.994;2023-04-03T02:51:09;0.4;0;0
72918;PMS7003;68407;55.694;26.994;2023-04-03T02:56:13;0.7;0;0
72918;PMS7003;68407;55.694;26.994;2023-04-03T03:01:03;0;0;0
72918;PMS7003;68407;55.694;26.994;2023-04-03T03:06:43;0.3;0;0
72918;PMS7003;68407;55.694;26.994;2023-04-03T03:11:27;0.5;0;0
72918;PMS7003;68407;55.694;26.994;2023-04-03T03:16:13;0.3;0;0
72918;PMS7003;68407;55.694;26.994;2023-04-03T03:21:35;0.2;0;0
72918;PMS7003;68407;55.694;26.994;2023-04-03T03:26:13;0.6;0;0
72918;PMS7003;68407;55.694;26.994;2023-04-03T03:31:43;0.1;0;0
72918;PMS7003;68407;55.694;26.994;2023-04-03T03:36:27;0.6;0.1;0
72918;PMS7003;68407;55.694;26.994;2023-04-03T03:41:27;0.5;0;0
72918;PMS7003;68407;55.694;26.994;2023-04-03T03:46:41;0.3;0;0
72918;PMS7003;68407;55.694;26.994;2023-04-03T03:51:13;0;0;0
72918;PMS7003;68407;55.694;26.994;2023-04-03T03:56:27;0.4;0;0
72918;PMS7003;68407;55.694;26.994;2023-04-03T04:01:27;0.3;0.1;0
72918;PMS7003;68407;55.694;26.994;2023-04-03T04:06:21;0.3;0;0
72918;PMS7003;68407;55.694;26.994;2023-04-03T04:11:31;0.4;0;0
72918;PMS7003;68407;55.694;26.994;2023-04-03T04:16:13;0.2;0;0
72918;PMS7003;68407;55.694;26.994;2023-04-03T04:21:27;0.2;0;0
72918;PMS7003;68407;55.694;26.994;2023-04-03T04:26:21;1;0;0
72918;PMS7003;68407;55.694;26.994;2023-04-03T04:31:27;0;0;0
72918;PMS7003;68407;55.694;26.994;2023-04-03T04:36:43;0.5;0;0
72918;PMS7003;68407;55.694;26.994;2023-04-03T04:41:19;0.6;0;0
72918;PMS7003;68407;55.694;26.994;2023-04-03T04:46:21;0.3;0.1;0.1
72918;PMS7003;68407;55.694;26.994;2023-04-03T04:51:37;0.4;0;0
72918;PMS7003;68407;55.694;26.994;2023-04-03T04:56:45;0.6;0;0
72918;PMS7003;68407;55.694;26.994;2023-04-03T05:01:43;0.3;0;0
72918;PMS7003;68407;55.694;26.994;2023-04-03T05:06:09;0.6;0;0
72918;PMS7003;68407;55.694;26.994;2023-04-03T05:11:27;0.5;0.2;0.2
72918;PMS7003;68407;55.694;26.994;2023-04-03T05:16:04;0.7;0.2;0.1
72918;PMS7003;68407;55.694;26.994;2023-04-03T05:21:17;0.9;0.1;0.1
72918;PMS7003;68407;55.694;26.994;2023-04-03T05:26:45;0.2;0.1;0
72918;PMS7003;68407;55.694;26.994;2023-04-03T05:31:03;0.3;0;0
72918;PMS7003;68407;55.694;26.994;2023-04-03T05:36:27;0.5;0.1;0.1
72918;PMS7003;68407;55.694;26.994;2023-04-03T05:41:04;0.3;0;0
72918;PMS7003;68407;55.694;26.994;2023-04-03T05:46:27;0.6;0;0
72918;PMS7003;68407;55.694;26.994;2023-04-03T05:51:45;0.2;0.1;0
72918;PMS7003;68407;55.694;26.994;2023-04-03T05:56:19;0.2;0;0
72918;PMS7003;68407;55.694;26.994;2023-04-03T06:01:27;0.7;0.2;0.1
72918;PMS7003;68407;55.694;26.994;2023-04-03T06:06:42;0.3;0;0
72918;PMS7003;68407;55.694;26.994;2023-04-03T06:11:17;0.4;0.1;0
72918;PMS7003;68407;55.694;26.994;2023-04-03T06:16:06;0.5;0.1;0.1
72918;PMS7003;68407;55.694;26.994;2023-04-03T06:21:03;0.7;0.1;0.1
72918;PMS7003;68407;55.694;26.994;2023-04-03T06:26:19;0.3;0.1;0
72918;PMS7003;68407;55.694;26.994;2023-04-03T06:31:27;0.4;0;0
72918;PMS7003;68407;55.694;26.994;2023-04-03T06:36:10;0.3;0.1;0
72918;PMS7003;68407;55.694;26.994;2023-04-03T06:41:41;0.5;0.1;0
72918;PMS7003;68407;55.694;26.994;2023-04-03T06:46:14;0.6;0.1;0.1
72918;PMS7003;68407;55.694;26.994;2023-04-03T06:51:28;0.3;0.1;0.1
72918;PMS7003;68407;55.694;26.994;2023-04-03T06:56:04;0.3;0.1;0
72918;PMS7003;68407;55.694;26.994;2023-04-03T07:01:28;0.2;0.1;0
72918;PMS7003;68407;55.694;26.994;2023-04-03T07:06:46;1.1;0.1;0
72918;PMS7003;68407;55.694;26.994;2023-04-03T07:11:04;0.3;0;0
72918;PMS7003;68407;55.694;26.994;2023-04-03T07:16:42;0.1;0.1;0.1
72918;PMS7003;68407;55.694;26.994;2023-04-03T07:21:17;0.1;0;0
72918;PMS7003;68407;55.694;26.994;2023-04-03T07:26:27;0.2;0.1;0.1
72918;PMS7003;68407;55.694;26.994;2023-04-03T07:31:42;0.2;0.1;0.1
72918;PMS7003;68407;55.694;26.994;2023-04-03T07:36:10;0.9;0.1;0
72918;PMS7003;68407;55.694;26.994;2023-04-03T07:41:28;0.3;0;0
72918;PMS7003;68407;55.694;26.994;2023-04-03T07:46:36;0.5;0.2;0.1
72918;PMS7003;68407;55.694;26.994;2023-04-03T07:51:22;0.7;0.1;0.1
72918;PMS7003;68407;55.694;26.994;2023-04-03T07:56:44;0.3;0;0
72918;PMS7003;68407;55.694;26.994;2023-04-03T08:01:02;0.5;0.2;0
72918;PMS7003;68407;55.694;26.994;2023-04-03T08:06:10;0.2;0.1;0
72918;PMS7003;68407;55.694;26.994;2023-04-03T08:11:34;0.7;0;0
72918;PMS7003;68407;55.694;26.994;2023-04-03T08:16:44;0.4;0;0
72918;PMS7003;68407;55.694;26.994;2023-04-03T08:21:14;0.6;0;0
72918;PMS7003;68407;55.694;26.994;2023-04-03T08:26:05;0.3;0.1;0.1
72918;PMS7003;68407;55.694;26.994;2023-04-03T08:31:22;0.2;0.1;0
72918;PMS7003;68407;55.694;26.994;2023-04-03T08:36:28;0.2;0.2;0.1
72918;PMS7003;68407;55.694;26.994;2023-04-03T08:41:46;0.3;0.1;0
72918;PMS7003;68407;55.694;26.994;2023-04-03T08:46:22;0.1;0;0
72918;PMS7003;68407;55.694;26.994;2023-04-03T08:51:02;0.3;0.2;0
72918;PMS7003;68407;55.694;26.994;2023-04-03T08:56:42;0.5;0.3;0.1
72918;PMS7003;68407;55.694;26.994;2023-04-03T09:01:34;0.6;0.2;0.1
72918;PMS7003;68407;55.694;26.994;2023-04-03T09:06:44;0.4;0;0
72918;PMS7003;68407;55.694;26.994;2023-04-03T09:11:23;0.6;0;0
72918;PMS7003;68407;55.694;26.994;2023-04-03T09:16:17;0.7;0.2;0.2
72918;PMS7003;68407;55.694;26.994;2023-04-03T09:21:23;0.3;0;0
72918;PMS7003;68407;55.694;26.994;2023-04-03T09:26:34;0.3;0;0
72918;PMS7003;68407;55.694;26.994;2023-04-03T09:31:44;0.4;0.2;0.2
72918;PMS7003;68407;55.694;26.994;2023-04-03T09:36:04;0.3;0.1;0
72918;PMS7003;68407;55.694;26.994;2023-04-03T09:41:05;0.7;0.1;0.1
72918;PMS7003;68407;55.694;26.994;2023-04-03T09:46:35;0.4;0.2;0.1
72918;PMS7003;68407;55.694;26.994;2023-04-03T09:51:44;0.8;0;0
72918;PMS7003;68407;55.694;26.994;2023-04-03T09:56:32;0.6;0.2;0.1
72918;PMS7003;68407;55.694;26.994;2023-04-03T10:01:23;0.7;0.2;0.1
72918;PMS7003;68407;55.694;26.994;2023-04-03T10:06:22;0.5;0.1;0.1
72918;PMS7003;68407;55.694;26.994;2023-04-03T10:11:24;0.4;0.2;0.1
72918;PMS7003;68407;55.694;26.994;2023-04-03T10:16:25;0.5;0.1;0
72918;PMS7003;68407;55.694;26.994;2023-04-03T10:21:46;0.7;0.1;0
72918;PMS7003;68407;55.694;26.994;2023-04-03T10:26:27;0.6;0.2;0
72918;PMS7003;68407;55.694;26.994;2023-04-03T10:31:14;0.6;0.1;0
72918;PMS7003;68407;55.694;26.994;2023-04-03T10:36:17;0.7;0;0
72918;PMS7003;68407;55.694;26.994;2023-04-03T10:41:34;0.3;0.1;0.1
72918;PMS7003;68407;55.694;26.994;2023-04-03T10:46:47;0.6;0.2;0.1
72918;PMS7003;68407;55.694;26.994;2023-04-03T10:51:06;0.7;0.2;0.2
72918;PMS7003;68407;55.694;26.994;2023-04-03T10:56:06;0.3;0.1;0
72918;PMS7003;68407;55.694;26.994;2023-04-03T11:01:29;0.2;0.1;0
72918;PMS7003;68407;55.694;26.994;2023-04-03T11:06:35;0.9;0.1;0
72918;PMS7003;68407;55.694;26.994;2023-04-03T11:11:48;0.2;0.1;0.1
72918;PMS7003;68407;55.694;26.994;2023-04-03T11:16:24;0.5;0.2;0.1
72918;PMS7003;68407;55.694;26.994;2023-04-03T11:21:15;0.5;0;0
72918;PMS7003;68407;55.694;26.994;2023-04-03T11:26:22;0.4;0;0
72918;PMS7003;68407;55.694;26.994;2023-04-03T11:31:19;0.5;0.1;0.1
72918;PMS7003;68407;55.694;26.994;2023-04-03T11:36:48;0.5;0.1;0
72918;PMS7003;68407;55.694;26.994;2023-04-03T11:41:14;0.4;0.2;0.1
72918;PMS7003;68407;55.694;26.994;2023-04-03T11:46:34;0.8;0.3;0.2
72918;PMS7003;68407;55.694;26.994;2023-04-03T11:51:44;0.3;0.2;0
72918;PMS7003;68407;55.694;26.994;2023-04-03T11:56:34;0.4;0;0
72918;PMS7003;68407;55.694;26.994;2023-04-03T12:01:48;0.3;0.1;0
72918;PMS7003;68407;55.694;26.994;2023-04-03T12:06:42;0.5;0.1;0
72918;PMS7003;68407;55.694;26.994;2023-04-03T12:11:25;0.4;0.1;0.1
72918;PMS7003;68407;55.694;26.994;2023-04-03T12:16:24;0.3;0.1;0
72918;PMS7003;68407;55.694;26.994;2023-04-03T12:22:07;0.5;0.1;0
72918;PMS7003;68407;55.694;26.994;2023-04-03T12:26:48;0.5;0;0
72918;PMS7003;68407;55.694;26.994;2023-04-03T12:31:38;0.4;0;0
72918;PMS7003;68407;55.694;26.994;2023-04-03T12:36:12;0.6;0.1;0
72918;PMS7003;68407;55.694;26.994;2023-04-03T12:41:27;0.4;0.2;0
72918;PMS7003;68407;55.694;26.994;2023-04-03T12:46:35;0.4;0;0
72918;PMS7003;68407;55.694;26.994;2023-04-03T12:51:48;0.3;0.1;0
72918;PMS7003;68407;55.694;26.994;2023-04-03T12:56:34;0.5;0.2;0
72918;PMS7003;68407;55.694;26.994;2023-04-03T13:01:14;0.7;0.2;0.2
72918;PMS7003;68407;55.694;26.994;2023-04-03T13:06:04;0.2;0.1;0.1
72918;PMS7003;68407;55.694;26.994;2023-04-03T13:11:34;0.4;0;0
72918;PMS7003;68407;55.694;26.994;2023-04-03T13:16:52;0.2;0;0
72918;PMS7003;68407;55.694;26.994;2023-04-03T13:21:24;0.1;0;0
72918;PMS7003;68407;55.694;26.994;2023-04-03T13:26:04;0.3;0;0
72918;PMS7003;68407;55.694;26.994;2023-04-03T13:31:18;0.6;0.2;0
72918;PMS7003;68407;55.694;26.994;2023-04-03T13:36:34;0.3;0;0
72918;PMS7003;68407;55.694;26.994;2023-04-03T13:41:49;0.4;0.1;0.1
72918;PMS7003;68407;55.694;26.994;2023-04-03T13:46:34;0.2;0;0
72918;PMS7003;68407;55.694;26.994;2023-04-03T13:51:04;0.3;0.1;0.1
72918;PMS7003;68407;55.694;26.994;2023-04-03T13:56:29;0.7;0.2;0.1
72918;PMS7003;68407;55.694;26.994;2023-04-03T14:01:37;0.4;0.1;0
72918;PMS7003;68407;55.694;26.994;2023-04-03T14:06:48;0.2;0.1;0
72918;PMS7003;68407;55.694;26.994;2023-04-03T14:11:34;0.4;0.1;0
72918;PMS7003;68407;55.694;26.994;2023-04-03T14:16:33;0.6;0.1;0
72918;PMS7003;68407;55.694;26.994;2023-04-03T14:21:26;0.3;0;0
72918;PMS7003;68407;55.694;26.994;2023-04-03T14:26:34;0.7;0;0
72918;PMS7003;68407;55.694;26.994;2023-04-03T14:31:48;0.6;0.1;0
72918;PMS7003;68407;55.694;26.994;2023-04-03T14:36:34;0.7;0;0
72918;PMS7003;68407;55.694;26.994;2023-04-03T14:41:26;0.2;0;0
72918;PMS7003;68407;55.694;26.994;2023-04-03T14:46:04;0.1;0;0
72918;PMS7003;68407;55.694;26.994;2023-04-03T14:51:34;0.6;0.1;0
72918;PMS7003;68407;55.694;26.994;2023-04-03T14:56:29;0.4;0.1;0.1
72918;PMS7003;68407;55.694;26.994;2023-04-03T15:01:48;0.2;0.1;0
72918;PMS7003;68407;55.694;26.994;2023-04-03T15:06:18;0.2;0;0
72918;PMS7003;68407;55.694;26.994;2023-04-03T15:11:04;0.6;0;0
72918;PMS7003;68407;55.694;26.994;2023-04-03T15:16:48;0.3;0.1;0
72918;PMS7003;68407;55.694;26.994;2023-04-03T15:21:34;0.1;0;0
72918;PMS7003;68407;55.694;26.994;2023-04-03T15:26:48;0.3;0;0
72918;PMS7003;68407;55.694;26.994;2023-04-03T15:31:34;0.5;0.1;0
72918;PMS7003;68407;55.694;26.994;2023-04-03T15:36:24;0.4;0;0
72918;PMS7003;68407;55.694;26.994;2023-04-03T15:41:14;0.6;0.1;0
72918;PMS7003;68407;55.694;26.994;2023-04-03T15:46:52;0.4;0.1;0.1
72918;PMS7003;68407;55.694;26.994;2023-04-03T15:51:46;1.9;0.9;0.6
72918;PMS7003;68407;55.694;26.994;2023-04-03T15:56:04;0.3;0.3;0.2
72918;PMS7003;68407;55.694;26.994;2023-04-03T16:01:48;0.3;0.1;0
72918;PMS7003;68407;55.694;26.994;2023-04-03T16:06:04;0.1;0.1;0.1
72918;PMS7003;68407;55.694;26.994;2023-04-03T16:11:30;0.5;0.3;0.1
72918;PMS7003;68407;55.694;26.994;2023-04-03T16:16:48;0.7;0.3;0.1
72918;PMS7003;68407;55.694;26.994;2023-04-03T16:21:04;0.6;0.1;0.1
72918;PMS7003;68407;55.694;26.994;2023-04-03T16:26:50;0.6;0.4;0.3
72918;PMS7003;68407;55.694;26.994;2023-04-03T16:31:04;1.4;0.6;0.4
72918;PMS7003;68407;55.694;26.994;2023-04-03T16:36:26;0.6;0.4;0.3
72918;PMS7003;68407;55.694;26.994;2023-04-03T16:41:50;0.7;0;0
72918;PMS7003;68407;55.694;26.994;2023-04-03T16:46:14;1.3;0.4;0.4
72918;PMS7003;68407;55.694;26.994;2023-04-03T16:51:50;0.5;0.1;0.1
72918;PMS7003;68407;55.694;26.994;2023-04-03T16:56:14;0.8;0.3;0.2
72918;PMS7003;68407;55.694;26.994;2023-04-03T17:01:33;0.3;0.2;0.2
72918;PMS7003;68407;55.694;26.994;2023-04-03T17:06:50;0.2;0.2;0.1
72918;PMS7003;68407;55.694;26.994;2023-04-03T17:11:21;0.8;0.3;0.1
72918;PMS7003;68407;55.694;26.994;2023-04-03T17:16:50;0.5;0.1;0.1
72918;PMS7003;68407;55.694;26.994;2023-04-03T17:21:04;0.6;0.1;0
72918;PMS7003;68407;55.694;26.994;2023-04-03T17:26:32;0.5;0.2;0.1
72918;PMS7003;68407;55.694;26.994;2023-04-03T17:31:20;0.5;0.1;0
72918;PMS7003;68407;55.694;26.994;2023-04-03T17:36:14;0.6;0.3;0.2
72918;PMS7003;68407;55.694;26.994;2023-04-03T17:41:50;0.7;0;0
72918;PMS7003;68407;55.694;26.994;2023-04-03T17:46:05;0.4;0.2;0.1
72918;PMS7003;68407;55.694;26.994;2023-04-03T17:51:33;0.3;0.2;0.1
72918;PMS7003;68407;55.694;26.994;2023-04-03T17:56:04;0.3;0.1;0
72918;PMS7003;68407;55.694;26.994;2023-04-03T18:01:21;0.5;0.2;0.1
72918;PMS7003;68407;55.694;26.994;2023-04-03T18:06:50;0.2;0.1;0.1
72918;PMS7003;68407;55.694;26.994;2023-04-03T18:11:18;0.6;0.3;0.1
72918;PMS7003;68407;55.694;26.994;2023-04-03T18:16:28;0.9;0.1;0
72918;PMS7003;68407;55.694;26.994;2023-04-03T18:21:13;0.3;0.2;0.2
72918;PMS7003;68407;55.694;26.994;2023-04-03T18:26:18;0.5;0.2;0.1
72918;PMS7003;68407;55.694;26.994;2023-04-03T18:31:49;0.6;0.4;0.3
72918;PMS7003;68407;55.694;26.994;2023-04-03T18:36:02;1.4;0.7;0.5
72918;PMS7003;68407;55.694;26.994;2023-04-03T18:41:32;0.9;0.4;0.3
72918;PMS7003;68407;55.694;26.994;2023-04-03T18:46:14;0.7;0.3;0.2
72918;PMS7003;68407;55.694;26.994;2023-04-03T18:51:20;0.6;0.3;0.2
72918;PMS7003;68407;55.694;26.994;2023-04-03T18:56:50;0.4;0.2;0.1
72918;PMS7003;68407;55.694;26.994;2023-04-03T19:01:04;0.6;0.4;0.2
72918;PMS7003;68407;55.694;26.994;2023-04-03T19:06:32;0.7;0.3;0.1
72918;PMS7003;68407;55.694;26.994;2023-04-03T19:11:14;0.7;0.3;0.1
72918;PMS7003;68407;55.694;26.994;2023-04-03T19:16:20;0.6;0.2;0.1
72918;PMS7003;68407;55.694;26.994;2023-04-03T19:21:50;0.9;0.5;0.3
72918;PMS7003;68407;55.694;26.994;2023-04-03T19:26:14;0.6;0.2;0.1
72918;PMS7003;68407;55.694;26.994;2023-04-03T19:31:32;0.6;0.3;0.3
72918;PMS7003;68407;55.694;26.994;2023-04-03T19:36:04;1;0.6;0.4
72918;PMS7003;68407;55.694;26.994;2023-04-03T19:41:14;0.8;0.4;0.3
72918;PMS7003;68407;55.694;26.994;2023-04-03T19:46:50;0.6;0.5;0.3
72918;PMS7003;68407;55.694;26.994;2023-04-03T19:51:12;0.6;0.4;0.3
72918;PMS7003;68407;55.694;26.994;2023-04-03T19:56:32;0.9;0.5;0.2
72918;PMS7003;68407;55.694;26.994;2023-04-03T20:01:24;0.4;0.3;0.2
72918;PMS7003;68407;55.694;26.994;2023-04-03T20:06:20;0.8;0.3;0.2
72918;PMS7003;68407;55.694;26.994;2023-04-03T20:11:50;1.2;0.4;0.2
72918;PMS7003;68407;55.694;26.994;2023-04-03T20:16:14;1.5;0.3;0.3
72918;PMS7003;68407;55.694;26.994;2023-04-03T20:21:26;0.6;0.2;0.1
72918;PMS7003;68407;55.694;26.994;2023-04-03T20:26:17;0.9;0.4;0.2
72918;PMS7003;68407;55.694;26.994;2023-04-03T20:31:36;1.1;0.6;0.5
72918;PMS7003;68407;55.694;26.994;2023-04-03T20:36:50;0.9;0.3;0.2
72918;PMS7003;68407;55.694;26.994;2023-04-03T20:41:20;1.2;0.4;0.1
72918;PMS7003;68407;55.694;26.994;2023-04-03T20:46:32;1.1;0.3;0.3
72918;PMS7003;68407;55.694;26.994;2023-04-03T20:51:08;1.3;0.5;0.4
72918;PMS7003;68407;55.694;26.994;2023-04-03T20:56:15;0.8;0.2;0.1
72918;PMS7003;68407;55.694;26.994;2023-04-03T21:01:50;0.8;0.3;0.2
72918;PMS7003;68407;55.694;26.994;2023-04-03T21:21:18;0.6;0.3;0.1
72918;PMS7003;68407;55.694;26.994;2023-04-03T21:26:50;0.4;0.1;0.1
72918;PMS7003;68407;55.694;26.994;2023-04-03T21:31:20;0.5;0.4;0.2
72918;PMS7003;68407;55.694;26.994;2023-04-03T21:36:16;1.8;0.4;0.2
72918;PMS7003;68407;55.694;26.994;2023-04-03T21:41:04;1;0.5;0.3
72918;PMS7003;68407;55.694;26.994;2023-04-03T21:46:14;1.3;0.8;0.6
72918;PMS7003;68407;55.694;26.994;2023-04-03T21:51:50;1;0.5;0.4
72918;PMS7003;68407;55.694;26.994;2023-04-03T21:56:04;0.7;0.5;0.3
72918;PMS7003;68407;55.694;26.994;2023-04-03T22:01:32;1.2;0.6;0.4
72918;PMS7003;68407;55.694;26.994;2023-04-03T22:06:04;1.6;0.6;0.4
72918;PMS7003;68407;55.694;26.994;2023-04-03T22:11:20;1.2;0.8;0.6
72918;PMS7003;68407;55.694;26.994;2023-04-03T22:16:48;0.9;0.6;0.4
72918;PMS7003;68407;55.694;26.994;2023-04-03T22:21:14;1.1;0.9;0.7
72918;PMS7003;68407;55.694;26.994;2023-04-03T22:26:32;1.2;0.6;0.5
72918;PMS7003;68407;55.694;26.994;2023-04-03T22:31:14;1.6;1.1;0.8
72918;PMS7003;68407;55.694;26.994;2023-04-03T22:36:20;1.6;1.2;1
72918;PMS7003;68407;55.694;26.994;2023-04-03T22:41:48;1.6;1.2;1
72918;PMS7003;68407;55.694;26.994;2023-04-03T22:46:20;1.2;0.9;0.6
72918;PMS7003;68407;55.694;26.994;2023-04-03T22:51:10;1.5;1;0.7
72918;PMS7003;68407;55.694;26.994;2023-04-03T22:56:05;1.3;0.8;0.7
72918;PMS7003;68407;55.694;26.994;2023-04-03T23:01:14;1.7;1.3;1.1
72918;PMS7003;68407;55.694;26.994;2023-04-03T23:06:48;2.3;1.6;1
72918;PMS7003;68407;55.694;26.994;2023-04-03T23:11:20;1.5;1;0.7
72918;PMS7003;68407;55.694;26.994;2023-04-03T23:16:32;1.9;1.1;0.9
72918;PMS7003;68407;55.694;26.994;2023-04-03T23:21:04;1;0.9;0.7
72918;PMS7003;68407;55.694;26.994;2023-04-03T23:26:32;1.7;1.2;1
72918;PMS7003;68407;55.694;26.994;2023-04-03T23:31:46;1.8;1.2;0.9
72918;PMS7003;68407;55.694;26.994;2023-04-03T23:36:18;1.4;1;0.8
72918;PMS7003;68407;55.694;26.994;2023-04-03T23:41:04;2.1;1.3;1.1
72918;PMS7003;68407;55.694;26.994;2023-04-03T23:46:04;2;1.2;1
72918;PMS7003;68407;55.694;26.994;2023-04-03T23:51:18;2.1;1.4;1.1
72918;PMS7003;68407;55.694;26.994;2023-04-03T23:56:44;1.6;1.2;0.9
